sensor_id;sensor_type;location;lat;lon;timestamp;P1;durP1;ratioP1;P2;durP2;ratioP2
74269;SDS011;62754;48.252;11.654;2022-10-22T00:02:05;3.45;;;1.70;;
74269;SDS011;62754;48.252;11.654;2022-10-22T00:04:31;2.90;;;1.30;;
74269;SDS011;62754;48.252;11.654;2022-10-22T00:06:57;4.72;;;1.67;;
74269;SDS011;62754;48.252;11.654;2022-10-22T00:09:23;6.55;;;2.50;;
74269;SDS011;62754;48.252;11.654;2022-10-22T00:11:48;3.63;;;1.60;;
74269;SDS011;62754;48.252;11.654;2022-10-22T00:14:14;4.97;;;1.75;;
74269;SDS011;62754;48.252;11.654;2022-10-22T00:16:40;4.93;;;1.60;;
74269;SDS011;62754;48.252;11.654;2022-10-22T00:19:06;4.60;;;1.80;;
74269;SDS011;62754;48.252;11.654;2022-10-22T00:21:32;2.88;;;1.40;;
74269;SDS011;62754;48.252;11.654;2022-10-22T00:23:58;3.35;;;1.30;;
74269;SDS011;62754;48.252;11.654;2022-10-22T00:26:23;2.13;;;1.10;;
74269;SDS011;62754;48.252;11.654;2022-10-22T00:28:49;2.72;;;1.33;;
74269;SDS011;62754;48.252;11.654;2022-10-22T00:31:15;2.17;;;1.05;;
74269;SDS011;62754;48.252;11.654;2022-10-22T00:33:41;3.15;;;1.08;;
74269;SDS011;62754;48.252;11.654;2022-10-22T00:36:06;3.20;;;1.25;;
74269;SDS011;62754;48.252;11.654;2022-10-22T00:38:33;3.00;;;1.00;;
74269;SDS011;62754;48.252;11.654;2022-10-22T00:40:58;3.70;;;1.20;;
74269;SDS011;62754;48.252;11.654;2022-10-22T00:43:25;3.97;;;1.10;;
74269;SDS011;62754;48.252;11.654;2022-10-22T00:45:52;3.40;;;1.08;;
74269;SDS011;62754;48.252;11.654;2022-10-22T00:48:19;4.93;;;1.20;;
74269;SDS011;62754;48.252;11.654;2022-10-22T00:50:58;3.95;;;1.08;;
74269;SDS011;62754;48.252;11.654;2022-10-22T00:56:00;2.28;;;1.05;;
74269;SDS011;62754;48.252;11.654;2022-10-22T00:58:27;3.35;;;1.35;;
74269;SDS011;62754;48.252;11.654;2022-10-22T01:00:55;4.18;;;1.38;;
74269;SDS011;62754;48.252;11.654;2022-10-22T01:05:57;3.20;;;1.00;;
74269;SDS011;62754;48.252;11.654;2022-10-22T01:24:55;3.10;;;0.90;;
74269;SDS011;62754;48.252;11.654;2022-10-22T01:27:51;3.63;;;0.90;;
74269;SDS011;62754;48.252;11.654;2022-10-22T01:30:23;2.85;;;1.00;;
74269;SDS011;62754;48.252;11.654;2022-10-22T01:32:53;4.60;;;0.98;;
74269;SDS011;62754;48.252;11.654;2022-10-22T01:35:26;4.60;;;1.00;;
74269;SDS011;62754;48.252;11.654;2022-10-22T01:37:56;2.60;;;1.10;;
74269;SDS011;62754;48.252;11.654;2022-10-22T01:40:24;2.63;;;0.93;;
74269;SDS011;62754;48.252;11.654;2022-10-22T01:43:02;3.55;;;1.05;;
74269;SDS011;62754;48.252;11.654;2022-10-22T01:45:30;2.28;;;1.05;;
74269;SDS011;62754;48.252;11.654;2022-10-22T01:48:08;2.38;;;1.00;;
74269;SDS011;62754;48.252;11.654;2022-10-22T01:51:12;3.35;;;1.02;;
74269;SDS011;62754;48.252;11.654;2022-10-22T01:56:55;4.75;;;1.38;;
74269;SDS011;62754;48.252;11.654;2022-10-22T02:02:11;4.70;;;1.02;;
74269;SDS011;62754;48.252;11.654;2022-10-22T02:04:52;2.33;;;0.90;;
74269;SDS011;62754;48.252;11.654;2022-10-22T02:07:27;2.05;;;0.90;;
74269;SDS011;62754;48.252;11.654;2022-10-22T02:09:57;3.58;;;0.85;;
74269;SDS011;62754;48.252;11.654;2022-10-22T02:12:25;2.35;;;0.80;;
74269;SDS011;62754;48.252;11.654;2022-10-22T02:14:53;3.38;;;1.00;;
74269;SDS011;62754;48.252;11.654;2022-10-22T02:17:21;3.75;;;1.35;;
74269;SDS011;62754;48.252;11.654;2022-10-22T02:19:52;2.85;;;1.13;;
74269;SDS011;62754;48.252;11.654;2022-10-22T02:22:21;2.00;;;0.90;;
74269;SDS011;62754;48.252;11.654;2022-10-22T02:24:47;5.15;;;1.45;;
74269;SDS011;62754;48.252;11.654;2022-10-22T02:27:19;3.40;;;1.20;;
74269;SDS011;62754;48.252;11.654;2022-10-22T02:32:23;3.75;;;0.85;;
74269;SDS011;62754;48.252;11.654;2022-10-22T02:34:53;4.85;;;1.08;;
74269;SDS011;62754;48.252;11.654;2022-10-22T02:37:21;2.90;;;0.80;;
74269;SDS011;62754;48.252;11.654;2022-10-22T02:39:48;2.83;;;0.98;;
74269;SDS011;62754;48.252;11.654;2022-10-22T02:42:15;2.40;;;0.77;;
74269;SDS011;62754;48.252;11.654;2022-10-22T02:44:41;2.00;;;0.80;;
74269;SDS011;62754;48.252;11.654;2022-10-22T02:47:07;2.75;;;0.77;;
74269;SDS011;62754;48.252;11.654;2022-10-22T02:49:33;2.33;;;0.70;;
74269;SDS011;62754;48.252;11.654;2022-10-22T02:51:58;3.10;;;0.85;;
74269;SDS011;62754;48.252;11.654;2022-10-22T02:54:24;3.33;;;0.73;;
74269;SDS011;62754;48.252;11.654;2022-10-22T02:56:50;1.95;;;0.68;;
74269;SDS011;62754;48.252;11.654;2022-10-22T02:59:16;2.72;;;0.70;;
74269;SDS011;62754;48.252;11.654;2022-10-22T03:01:41;3.50;;;0.93;;
74269;SDS011;62754;48.252;11.654;2022-10-22T03:04:07;2.85;;;1.00;;
74269;SDS011;62754;48.252;11.654;2022-10-22T03:06:33;3.75;;;0.90;;
74269;SDS011;62754;48.252;11.654;2022-10-22T03:08:59;1.92;;;0.70;;
74269;SDS011;62754;48.252;11.654;2022-10-22T03:11:25;2.95;;;0.98;;
74269;SDS011;62754;48.252;11.654;2022-10-22T03:13:50;3.20;;;0.90;;
74269;SDS011;62754;48.252;11.654;2022-10-22T03:16:16;2.75;;;0.90;;
74269;SDS011;62754;48.252;11.654;2022-10-22T03:18:42;2.75;;;1.10;;
74269;SDS011;62754;48.252;11.654;2022-10-22T03:21:09;4.32;;;0.80;;
74269;SDS011;62754;48.252;11.654;2022-10-22T03:23:52;4.00;;;1.00;;
74269;SDS011;62754;48.252;11.654;2022-10-22T03:28:45;3.88;;;0.70;;
74269;SDS011;62754;48.252;11.654;2022-10-22T03:31:11;2.70;;;0.82;;
74269;SDS011;62754;48.252;11.654;2022-10-22T03:33:36;2.70;;;1.00;;
74269;SDS011;62754;48.252;11.654;2022-10-22T03:36:02;1.95;;;0.77;;
74269;SDS011;62754;48.252;11.654;2022-10-22T03:38:28;2.53;;;0.68;;
74269;SDS011;62754;48.252;11.654;2022-10-22T03:40:55;2.38;;;0.60;;
74269;SDS011;62754;48.252;11.654;2022-10-22T03:43:20;2.92;;;1.27;;
74269;SDS011;62754;48.252;11.654;2022-10-22T03:45:46;2.63;;;0.65;;
74269;SDS011;62754;48.252;11.654;2022-10-22T03:48:12;3.15;;;1.27;;
74269;SDS011;62754;48.252;11.654;2022-10-22T03:50:38;2.60;;;0.80;;
74269;SDS011;62754;48.252;11.654;2022-10-22T03:53:03;3.70;;;0.80;;
74269;SDS011;62754;48.252;11.654;2022-10-22T03:55:29;3.28;;;1.10;;
74269;SDS011;62754;48.252;11.654;2022-10-22T03:57:55;2.85;;;0.80;;
74269;SDS011;62754;48.252;11.654;2022-10-22T04:00:21;2.97;;;0.90;;
74269;SDS011;62754;48.252;11.654;2022-10-22T04:02:46;4.68;;;1.02;;
74269;SDS011;62754;48.252;11.654;2022-10-22T04:05:12;3.58;;;0.77;;
74269;SDS011;62754;48.252;11.654;2022-10-22T04:07:38;2.90;;;0.93;;
74269;SDS011;62754;48.252;11.654;2022-10-22T04:10:04;6.40;;;1.13;;
74269;SDS011;62754;48.252;11.654;2022-10-22T04:12:30;2.38;;;0.80;;
74269;SDS011;62754;48.252;11.654;2022-10-22T04:14:56;2.28;;;0.80;;
74269;SDS011;62754;48.252;11.654;2022-10-22T04:17:21;4.72;;;0.88;;
74269;SDS011;62754;48.252;11.654;2022-10-22T04:19:47;2.00;;;0.70;;
74269;SDS011;62754;48.252;11.654;2022-10-22T04:22:13;1.70;;;0.80;;
74269;SDS011;62754;48.252;11.654;2022-10-22T04:24:39;2.85;;;0.80;;
74269;SDS011;62754;48.252;11.654;2022-10-22T04:27:04;3.17;;;0.90;;
74269;SDS011;62754;48.252;11.654;2022-10-22T04:29:30;1.58;;;0.68;;
74269;SDS011;62754;48.252;11.654;2022-10-22T04:31:56;2.15;;;0.55;;
74269;SDS011;62754;48.252;11.654;2022-10-22T04:34:21;2.58;;;0.75;;
74269;SDS011;62754;48.252;11.654;2022-10-22T04:36:47;1.58;;;0.65;;
74269;SDS011;62754;48.252;11.654;2022-10-22T04:39:13;2.50;;;0.73;;
74269;SDS011;62754;48.252;11.654;2022-10-22T04:41:39;3.63;;;0.70;;
74269;SDS011;62754;48.252;11.654;2022-10-22T04:44:05;2.28;;;0.60;;
74269;SDS011;62754;48.252;11.654;2022-10-22T04:48:58;1.77;;;0.45;;
74269;SDS011;62754;48.252;11.654;2022-10-22T04:51:24;2.03;;;0.80;;
74269;SDS011;62754;48.252;11.654;2022-10-22T04:53:51;2.08;;;0.47;;
74269;SDS011;62754;48.252;11.654;2022-10-22T04:56:20;2.92;;;0.50;;
74269;SDS011;62754;48.252;11.654;2022-10-22T04:58:51;2.75;;;0.50;;
74269;SDS011;62754;48.252;11.654;2022-10-22T05:01:22;1.63;;;0.90;;
74269;SDS011;62754;48.252;11.654;2022-10-22T05:03:51;1.55;;;0.60;;
74269;SDS011;62754;48.252;11.654;2022-10-22T05:06:19;2.78;;;0.50;;
74269;SDS011;62754;48.252;11.654;2022-10-22T05:08:46;0.98;;;0.40;;
74269;SDS011;62754;48.252;11.654;2022-10-22T05:13:39;1.30;;;0.52;;
74269;SDS011;62754;48.252;11.654;2022-10-22T05:16:04;2.08;;;0.40;;
74269;SDS011;62754;48.252;11.654;2022-10-22T05:18:32;1.65;;;0.30;;
74269;SDS011;62754;48.252;11.654;2022-10-22T05:21:02;2.22;;;0.50;;
74269;SDS011;62754;48.252;11.654;2022-10-22T05:23:29;1.67;;;0.50;;
74269;SDS011;62754;48.252;11.654;2022-10-22T05:25:55;2.08;;;0.60;;
74269;SDS011;62754;48.252;11.654;2022-10-22T05:28:21;2.03;;;0.57;;
74269;SDS011;62754;48.252;11.654;2022-10-22T05:30:53;3.33;;;0.90;;
74269;SDS011;62754;48.252;11.654;2022-10-22T05:33:20;1.35;;;0.30;;
74269;SDS011;62754;48.252;11.654;2022-10-22T05:35:45;1.67;;;0.40;;
74269;SDS011;62754;48.252;11.654;2022-10-22T05:38:11;1.08;;;0.30;;
74269;SDS011;62754;48.252;11.654;2022-10-22T05:40:37;1.80;;;0.68;;
74269;SDS011;62754;48.252;11.654;2022-10-22T05:43:03;1.90;;;0.57;;
74269;SDS011;62754;48.252;11.654;2022-10-22T05:45:28;2.10;;;0.50;;
74269;SDS011;62754;48.252;11.654;2022-10-22T05:47:54;1.77;;;0.60;;
74269;SDS011;62754;48.252;11.654;2022-10-22T05:50:20;1.15;;;0.30;;
74269;SDS011;62754;48.252;11.654;2022-10-22T05:52:46;1.10;;;0.50;;
74269;SDS011;62754;48.252;11.654;2022-10-22T05:55:11;2.90;;;0.50;;
74269;SDS011;62754;48.252;11.654;2022-10-22T05:57:38;1.50;;;0.50;;
74269;SDS011;62754;48.252;11.654;2022-10-22T06:00:04;2.05;;;0.50;;
74269;SDS011;62754;48.252;11.654;2022-10-22T06:02:30;1.00;;;0.30;;
74269;SDS011;62754;48.252;11.654;2022-10-22T06:04:56;1.90;;;0.60;;
74269;SDS011;62754;48.252;11.654;2022-10-22T06:07:22;0.93;;;0.30;;
74269;SDS011;62754;48.252;11.654;2022-10-22T06:09:48;2.03;;;0.32;;
74269;SDS011;62754;48.252;11.654;2022-10-22T06:12:14;3.13;;;0.43;;
74269;SDS011;62754;48.252;11.654;2022-10-22T06:14:39;2.88;;;0.60;;
74269;SDS011;62754;48.252;11.654;2022-10-22T06:17:05;1.30;;;0.50;;
74269;SDS011;62754;48.252;11.654;2022-10-22T06:19:31;0.77;;;0.30;;
74269;SDS011;62754;48.252;11.654;2022-10-22T06:21:57;1.10;;;0.40;;
74269;SDS011;62754;48.252;11.654;2022-10-22T06:24:22;2.30;;;0.50;;
74269;SDS011;62754;48.252;11.654;2022-10-22T06:26:49;1.88;;;0.68;;
74269;SDS011;62754;48.252;11.654;2022-10-22T06:29:15;4.07;;;0.70;;
74269;SDS011;62754;48.252;11.654;2022-10-22T06:31:41;1.45;;;0.88;;
74269;SDS011;62754;48.252;11.654;2022-10-22T06:34:07;2.92;;;1.35;;
74269;SDS011;62754;48.252;11.654;2022-10-22T06:36:36;2.70;;;1.10;;
74269;SDS011;62754;48.252;11.654;2022-10-22T06:39:03;2.35;;;0.98;;
74269;SDS011;62754;48.252;11.654;2022-10-22T06:41:29;3.33;;;0.85;;
74269;SDS011;62754;48.252;11.654;2022-10-22T06:43:55;4.07;;;1.40;;
74269;SDS011;62754;48.252;11.654;2022-10-22T06:46:22;4.47;;;1.20;;
74269;SDS011;62754;48.252;11.654;2022-10-22T06:48:56;3.15;;;1.15;;
74269;SDS011;62754;48.252;11.654;2022-10-22T06:51:26;4.20;;;1.77;;
74269;SDS011;62754;48.252;11.654;2022-10-22T06:53:52;4.38;;;1.40;;
74269;SDS011;62754;48.252;11.654;2022-10-22T06:56:20;5.15;;;1.42;;
74269;SDS011;62754;48.252;11.654;2022-10-22T06:58:48;2.55;;;1.30;;
74269;SDS011;62754;48.252;11.654;2022-10-22T07:01:16;3.53;;;1.13;;
74269;SDS011;62754;48.252;11.654;2022-10-22T07:03:43;3.28;;;1.30;;
74269;SDS011;62754;48.252;11.654;2022-10-22T07:06:11;2.00;;;1.00;;
74269;SDS011;62754;48.252;11.654;2022-10-22T07:08:38;2.17;;;1.00;;
74269;SDS011;62754;48.252;11.654;2022-10-22T07:11:08;2.50;;;0.70;;
74269;SDS011;62754;48.252;11.654;2022-10-22T07:13:36;2.10;;;0.90;;
74269;SDS011;62754;48.252;11.654;2022-10-22T07:16:02;2.25;;;0.90;;
74269;SDS011;62754;48.252;11.654;2022-10-22T07:18:29;2.88;;;1.30;;
74269;SDS011;62754;48.252;11.654;2022-10-22T07:20:55;4.32;;;1.10;;
74269;SDS011;62754;48.252;11.654;2022-10-22T07:23:21;1.80;;;0.70;;
74269;SDS011;62754;48.252;11.654;2022-10-22T07:25:46;4.32;;;0.90;;
74269;SDS011;62754;48.252;11.654;2022-10-22T07:28:12;3.50;;;0.82;;
74269;SDS011;62754;48.252;11.654;2022-10-22T07:30:38;2.15;;;1.05;;
74269;SDS011;62754;48.252;11.654;2022-10-22T07:33:04;6.75;;;1.13;;
74269;SDS011;62754;48.252;11.654;2022-10-22T07:35:30;2.78;;;0.98;;
74269;SDS011;62754;48.252;11.654;2022-10-22T07:37:56;3.42;;;0.93;;
74269;SDS011;62754;48.252;11.654;2022-10-22T07:40:22;2.67;;;0.50;;
74269;SDS011;62754;48.252;11.654;2022-10-22T07:42:48;1.92;;;0.85;;
74269;SDS011;62754;48.252;11.654;2022-10-22T07:45:14;2.60;;;0.70;;
74269;SDS011;62754;48.252;11.654;2022-10-22T07:47:39;3.10;;;1.05;;
74269;SDS011;62754;48.252;11.654;2022-10-22T07:50:05;6.25;;;2.67;;
74269;SDS011;62754;48.252;11.654;2022-10-22T07:52:31;5.90;;;1.38;;
74269;SDS011;62754;48.252;11.654;2022-10-22T07:54:57;2.38;;;0.80;;
74269;SDS011;62754;48.252;11.654;2022-10-22T07:57:23;3.50;;;0.90;;
74269;SDS011;62754;48.252;11.654;2022-10-22T07:59:49;4.35;;;0.68;;
74269;SDS011;62754;48.252;11.654;2022-10-22T08:02:15;3.97;;;0.80;;
74269;SDS011;62754;48.252;11.654;2022-10-22T08:04:41;4.05;;;1.20;;
74269;SDS011;62754;48.252;11.654;2022-10-22T08:07:06;1.75;;;0.50;;
74269;SDS011;62754;48.252;11.654;2022-10-22T08:09:32;1.65;;;0.68;;
74269;SDS011;62754;48.252;11.654;2022-10-22T08:11:58;2.47;;;0.80;;
74269;SDS011;62754;48.252;11.654;2022-10-22T08:14:24;1.33;;;0.45;;
74269;SDS011;62754;48.252;11.654;2022-10-22T08:16:50;2.08;;;0.60;;
74269;SDS011;62754;48.252;11.654;2022-10-22T08:19:16;1.00;;;0.45;;
74269;SDS011;62754;48.252;11.654;2022-10-22T08:21:41;2.05;;;0.63;;
74269;SDS011;62754;48.252;11.654;2022-10-22T08:24:07;1.60;;;0.60;;
74269;SDS011;62754;48.252;11.654;2022-10-22T08:26:33;2.60;;;0.50;;
74269;SDS011;62754;48.252;11.654;2022-10-22T08:28:59;2.38;;;0.50;;
74269;SDS011;62754;48.252;11.654;2022-10-22T08:31:24;5.13;;;0.70;;
74269;SDS011;62754;48.252;11.654;2022-10-22T08:33:50;6.80;;;0.73;;
74269;SDS011;62754;48.252;11.654;2022-10-22T08:36:16;4.65;;;1.33;;
74269;SDS011;62754;48.252;11.654;2022-10-22T08:38:42;2.40;;;0.52;;
74269;SDS011;62754;48.252;11.654;2022-10-22T08:41:12;1.77;;;0.50;;
74269;SDS011;62754;48.252;11.654;2022-10-22T08:49:04;3.88;;;0.77;;
74269;SDS011;62754;48.252;11.654;2022-10-22T08:51:44;1.98;;;0.52;;
74269;SDS011;62754;48.252;11.654;2022-10-22T08:59:45;2.92;;;0.50;;
74269;SDS011;62754;48.252;11.654;2022-10-22T09:08:10;3.00;;;0.40;;
74269;SDS011;62754;48.252;11.654;2022-10-22T09:10:39;2.28;;;0.50;;
74269;SDS011;62754;48.252;11.654;2022-10-22T09:13:13;1.70;;;0.60;;
74269;SDS011;62754;48.252;11.654;2022-10-22T09:15:41;3.22;;;0.60;;
74269;SDS011;62754;48.252;11.654;2022-10-22T09:18:14;2.40;;;0.45;;
74269;SDS011;62754;48.252;11.654;2022-10-22T09:20:48;1.40;;;0.63;;
74269;SDS011;62754;48.252;11.654;2022-10-22T09:23:23;2.90;;;0.60;;
74269;SDS011;62754;48.252;11.654;2022-10-22T09:26:13;2.38;;;0.60;;
74269;SDS011;62754;48.252;11.654;2022-10-22T09:28:40;2.38;;;0.75;;
74269;SDS011;62754;48.252;11.654;2022-10-22T09:31:11;1.17;;;0.60;;
74269;SDS011;62754;48.252;11.654;2022-10-22T09:33:39;2.22;;;0.60;;
74269;SDS011;62754;48.252;11.654;2022-10-22T09:36:05;2.63;;;0.60;;
74269;SDS011;62754;48.252;11.654;2022-10-22T09:38:35;1.17;;;0.57;;
74269;SDS011;62754;48.252;11.654;2022-10-22T09:41:05;1.38;;;0.45;;
74269;SDS011;62754;48.252;11.654;2022-10-22T09:43:32;1.92;;;0.60;;
74269;SDS011;62754;48.252;11.654;2022-10-22T09:45:59;2.67;;;1.00;;
74269;SDS011;62754;48.252;11.654;2022-10-22T09:48:28;2.17;;;0.70;;
74269;SDS011;62754;48.252;11.654;2022-10-22T09:53:47;2.22;;;0.60;;
74269;SDS011;62754;48.252;11.654;2022-10-22T09:56:24;2.20;;;0.65;;
74269;SDS011;62754;48.252;11.654;2022-10-22T09:58:54;3.28;;;0.73;;
74269;SDS011;62754;48.252;11.654;2022-10-22T10:01:25;2.53;;;0.60;;
74269;SDS011;62754;48.252;11.654;2022-10-22T10:03:53;2.13;;;0.50;;
74269;SDS011;62754;48.252;11.654;2022-10-22T10:06:29;1.15;;;0.50;;
74269;SDS011;62754;48.252;11.654;2022-10-22T10:08:56;1.45;;;0.60;;
74269;SDS011;62754;48.252;11.654;2022-10-22T10:11:25;2.47;;;0.65;;
74269;SDS011;62754;48.252;11.654;2022-10-22T10:16:51;2.55;;;0.70;;
74269;SDS011;62754;48.252;11.654;2022-10-22T10:22:06;2.38;;;0.60;;
74269;SDS011;62754;48.252;11.654;2022-10-22T10:37:11;3.28;;;0.73;;
74269;SDS011;62754;48.252;11.654;2022-10-22T10:39:50;1.95;;;0.90;;
74269;SDS011;62754;48.252;11.654;2022-10-22T10:48:06;2.05;;;0.75;;
74269;SDS011;62754;48.252;11.654;2022-10-22T10:50:39;3.13;;;0.82;;
74269;SDS011;62754;48.252;11.654;2022-10-22T11:01:14;2.75;;;0.52;;
74269;SDS011;62754;48.252;11.654;2022-10-22T11:03:51;3.15;;;1.00;;
74269;SDS011;62754;48.252;11.654;2022-10-22T11:06:23;2.28;;;0.55;;
74269;SDS011;62754;48.252;11.654;2022-10-22T11:08:52;1.50;;;0.47;;
74269;SDS011;62754;48.252;11.654;2022-10-22T11:11:25;2.28;;;0.40;;
74269;SDS011;62754;48.252;11.654;2022-10-22T11:14:12;1.30;;;0.43;;
74269;SDS011;62754;48.252;11.654;2022-10-22T11:16:45;1.52;;;0.73;;
74269;SDS011;62754;48.252;11.654;2022-10-22T11:25:17;1.00;;;0.40;;
74269;SDS011;62754;48.252;11.654;2022-10-22T11:30:39;2.03;;;0.55;;
74269;SDS011;62754;48.252;11.654;2022-10-22T11:33:11;1.73;;;0.40;;
74269;SDS011;62754;48.252;11.654;2022-10-22T11:35:43;2.15;;;0.32;;
74269;SDS011;62754;48.252;11.654;2022-10-22T11:38:11;2.38;;;0.40;;
74269;SDS011;62754;48.252;11.654;2022-10-22T11:43:51;1.35;;;0.40;;
74269;SDS011;62754;48.252;11.654;2022-10-22T11:51:48;0.65;;;0.30;;
74269;SDS011;62754;48.252;11.654;2022-10-22T11:57:16;1.30;;;0.40;;
74269;SDS011;62754;48.252;11.654;2022-10-22T12:04:54;3.55;;;0.43;;
74269;SDS011;62754;48.252;11.654;2022-10-22T12:07:31;1.98;;;0.35;;
74269;SDS011;62754;48.252;11.654;2022-10-22T12:10:17;1.05;;;0.40;;
74269;SDS011;62754;48.252;11.654;2022-10-22T12:12:44;1.17;;;0.30;;
74269;SDS011;62754;48.252;11.654;2022-10-22T12:15:22;0.80;;;0.30;;
74269;SDS011;62754;48.252;11.654;2022-10-22T12:17:55;3.63;;;0.85;;
74269;SDS011;62754;48.252;11.654;2022-10-22T12:20:24;1.30;;;0.30;;
74269;SDS011;62754;48.252;11.654;2022-10-22T12:22:51;1.77;;;0.30;;
74269;SDS011;62754;48.252;11.654;2022-10-22T12:25:18;0.52;;;0.25;;
74269;SDS011;62754;48.252;11.654;2022-10-22T12:27:49;2.30;;;0.40;;
74269;SDS011;62754;48.252;11.654;2022-10-22T12:30:19;3.13;;;0.30;;
74269;SDS011;62754;48.252;11.654;2022-10-22T12:32:47;1.05;;;0.30;;
74269;SDS011;62754;48.252;11.654;2022-10-22T12:35:16;0.80;;;0.35;;
74269;SDS011;62754;48.252;11.654;2022-10-22T12:37:47;1.42;;;0.20;;
74269;SDS011;62754;48.252;11.654;2022-10-22T12:40:15;0.77;;;0.22;;
74269;SDS011;62754;48.252;11.654;2022-10-22T12:42:55;1.30;;;0.40;;
74269;SDS011;62754;48.252;11.654;2022-10-22T12:45:25;0.65;;;0.30;;
74269;SDS011;62754;48.252;11.654;2022-10-22T12:47:56;1.13;;;0.30;;
74269;SDS011;62754;48.252;11.654;2022-10-22T12:50:34;1.17;;;0.38;;
74269;SDS011;62754;48.252;11.654;2022-10-22T12:53:31;1.17;;;0.30;;
74269;SDS011;62754;48.252;11.654;2022-10-22T12:55:59;1.70;;;0.30;;
74269;SDS011;62754;48.252;11.654;2022-10-22T12:58:32;0.80;;;0.30;;
74269;SDS011;62754;48.252;11.654;2022-10-22T13:01:03;1.90;;;0.50;;
74269;SDS011;62754;48.252;11.654;2022-10-22T13:03:31;2.63;;;0.45;;
74269;SDS011;62754;48.252;11.654;2022-10-22T13:06:20;1.52;;;0.70;;
74269;SDS011;62754;48.252;11.654;2022-10-22T13:11:32;1.20;;;0.30;;
74269;SDS011;62754;48.252;11.654;2022-10-22T13:14:03;2.22;;;0.40;;
74269;SDS011;62754;48.252;11.654;2022-10-22T13:16:30;1.38;;;0.30;;
74269;SDS011;62754;48.252;11.654;2022-10-22T13:21:22;0.73;;;0.20;;
74269;SDS011;62754;48.252;11.654;2022-10-22T13:24:17;1.02;;;0.55;;
74269;SDS011;62754;48.252;11.654;2022-10-22T13:26:47;2.13;;;0.70;;
74269;SDS011;62754;48.252;11.654;2022-10-22T13:29:17;1.10;;;0.50;;
74269;SDS011;62754;48.252;11.654;2022-10-22T13:31:48;1.90;;;0.50;;
74269;SDS011;62754;48.252;11.654;2022-10-22T13:34:17;1.13;;;0.25;;
74269;SDS011;62754;48.252;11.654;2022-10-22T13:36:45;4.07;;;0.50;;
74269;SDS011;62754;48.252;11.654;2022-10-22T13:39:21;1.73;;;0.30;;
74269;SDS011;62754;48.252;11.654;2022-10-22T13:41:49;1.75;;;0.50;;
74269;SDS011;62754;48.252;11.654;2022-10-22T13:44:16;1.40;;;0.40;;
74269;SDS011;62754;48.252;11.654;2022-10-22T13:46:42;1.88;;;0.38;;
74269;SDS011;62754;48.252;11.654;2022-10-22T13:49:11;0.93;;;0.40;;
74269;SDS011;62754;48.252;11.654;2022-10-22T13:51:40;2.25;;;0.65;;
74269;SDS011;62754;48.252;11.654;2022-10-22T13:54:14;1.77;;;0.60;;
74269;SDS011;62754;48.252;11.654;2022-10-22T13:56:43;2.72;;;0.50;;
74269;SDS011;62754;48.252;11.654;2022-10-22T13:59:09;1.20;;;0.35;;
74269;SDS011;62754;48.252;11.654;2022-10-22T14:01:35;2.38;;;0.63;;
74269;SDS011;62754;48.252;11.654;2022-10-22T14:04:03;2.40;;;0.50;;
74269;SDS011;62754;48.252;11.654;2022-10-22T14:06:30;2.40;;;0.55;;
74269;SDS011;62754;48.252;11.654;2022-10-22T14:08:58;2.92;;;0.60;;
74269;SDS011;62754;48.252;11.654;2022-10-22T14:11:32;3.33;;;0.55;;
74269;SDS011;62754;48.252;11.654;2022-10-22T14:13:57;2.00;;;0.50;;
74269;SDS011;62754;48.252;11.654;2022-10-22T14:16:25;3.40;;;0.52;;
74269;SDS011;62754;48.252;11.654;2022-10-22T14:18:52;1.63;;;0.60;;
74269;SDS011;62754;48.252;11.654;2022-10-22T14:21:19;2.20;;;0.63;;
74269;SDS011;62754;48.252;11.654;2022-10-22T14:23:46;1.13;;;0.40;;
74269;SDS011;62754;48.252;11.654;2022-10-22T14:26:23;1.38;;;0.50;;
74269;SDS011;62754;48.252;11.654;2022-10-22T14:28:50;1.55;;;0.47;;
74269;SDS011;62754;48.252;11.654;2022-10-22T14:31:16;1.60;;;0.60;;
74269;SDS011;62754;48.252;11.654;2022-10-22T14:33:42;3.85;;;0.70;;
74269;SDS011;62754;48.252;11.654;2022-10-22T14:36:09;3.40;;;0.65;;
74269;SDS011;62754;48.252;11.654;2022-10-22T14:38:37;4.00;;;0.77;;
74269;SDS011;62754;48.252;11.654;2022-10-22T14:41:04;3.35;;;0.73;;
74269;SDS011;62754;48.252;11.654;2022-10-22T14:43:40;2.40;;;0.50;;
74269;SDS011;62754;48.252;11.654;2022-10-22T14:46:07;2.13;;;0.60;;
74269;SDS011;62754;48.252;11.654;2022-10-22T14:48:35;2.78;;;0.65;;
74269;SDS011;62754;48.252;11.654;2022-10-22T14:51:01;2.13;;;0.80;;
74269;SDS011;62754;48.252;11.654;2022-10-22T14:53:26;1.80;;;0.40;;
74269;SDS011;62754;48.252;11.654;2022-10-22T14:55:52;3.65;;;0.70;;
74269;SDS011;62754;48.252;11.654;2022-10-22T14:58:18;2.75;;;0.73;;
74269;SDS011;62754;48.252;11.654;2022-10-22T15:00:44;1.40;;;0.45;;
74269;SDS011;62754;48.252;11.654;2022-10-22T15:03:09;2.88;;;0.70;;
74269;SDS011;62754;48.252;11.654;2022-10-22T15:05:38;3.45;;;0.70;;
74269;SDS011;62754;48.252;11.654;2022-10-22T15:08:05;2.20;;;0.65;;
74269;SDS011;62754;48.252;11.654;2022-10-22T15:10:31;2.65;;;0.82;;
74269;SDS011;62754;48.252;11.654;2022-10-22T15:12:56;2.58;;;0.70;;
74269;SDS011;62754;48.252;11.654;2022-10-22T15:15:22;2.30;;;0.73;;
74269;SDS011;62754;48.252;11.654;2022-10-22T15:17:48;2.20;;;0.63;;
74269;SDS011;62754;48.252;11.654;2022-10-22T15:20:14;2.15;;;0.80;;
74269;SDS011;62754;48.252;11.654;2022-10-22T15:22:39;3.05;;;0.80;;
74269;SDS011;62754;48.252;11.654;2022-10-22T15:25:06;2.95;;;0.88;;
74269;SDS011;62754;48.252;11.654;2022-10-22T15:27:33;1.55;;;0.57;;
74269;SDS011;62754;48.252;11.654;2022-10-22T15:29:59;3.17;;;0.90;;
74269;SDS011;62754;48.252;11.654;2022-10-22T15:32:25;3.00;;;0.60;;
74269;SDS011;62754;48.252;11.654;2022-10-22T15:34:52;2.03;;;0.80;;
74269;SDS011;62754;48.252;11.654;2022-10-22T15:37:18;3.65;;;1.13;;
74269;SDS011;62754;48.252;11.654;2022-10-22T15:39:44;3.83;;;1.40;;
74269;SDS011;62754;48.252;11.654;2022-10-22T15:42:10;2.88;;;1.23;;
74269;SDS011;62754;48.252;11.654;2022-10-22T15:44:36;3.55;;;1.05;;
74269;SDS011;62754;48.252;11.654;2022-10-22T15:47:03;4.25;;;1.15;;
74269;SDS011;62754;48.252;11.654;2022-10-22T15:49:29;4.13;;;1.17;;
74269;SDS011;62754;48.252;11.654;2022-10-22T15:51:55;2.58;;;1.10;;
74269;SDS011;62754;48.252;11.654;2022-10-22T15:54:21;3.92;;;1.08;;
74269;SDS011;62754;48.252;11.654;2022-10-22T15:56:49;4.13;;;1.05;;
74269;SDS011;62754;48.252;11.654;2022-10-22T15:59:15;4.72;;;1.52;;
74269;SDS011;62754;48.252;11.654;2022-10-22T16:01:42;4.70;;;1.20;;
74269;SDS011;62754;48.252;11.654;2022-10-22T16:04:08;3.80;;;1.63;;
74269;SDS011;62754;48.252;11.654;2022-10-22T16:06:36;3.33;;;1.02;;
74269;SDS011;62754;48.252;11.654;2022-10-22T16:09:07;4.00;;;1.38;;
74269;SDS011;62754;48.252;11.654;2022-10-22T16:11:38;4.32;;;1.05;;
74269;SDS011;62754;48.252;11.654;2022-10-22T16:14:04;3.92;;;1.40;;
74269;SDS011;62754;48.252;11.654;2022-10-22T16:16:32;6.88;;;4.22;;
74269;SDS011;62754;48.252;11.654;2022-10-22T16:18:59;8.35;;;3.13;;
74269;SDS011;62754;48.252;11.654;2022-10-22T16:21:26;5.40;;;2.05;;
74269;SDS011;62754;48.252;11.654;2022-10-22T16:23:52;6.72;;;1.70;;
74269;SDS011;62754;48.252;11.654;2022-10-22T16:26:18;4.47;;;1.40;;
74269;SDS011;62754;48.252;11.654;2022-10-22T16:28:44;3.60;;;1.30;;
74269;SDS011;62754;48.252;11.654;2022-10-22T16:31:12;4.70;;;1.50;;
74269;SDS011;62754;48.252;11.654;2022-10-22T16:33:40;4.45;;;1.60;;
74269;SDS011;62754;48.252;11.654;2022-10-22T16:36:10;3.63;;;1.20;;
74269;SDS011;62754;48.252;11.654;2022-10-22T16:38:37;10.48;;;1.90;;
74269;SDS011;62754;48.252;11.654;2022-10-22T16:41:22;3.25;;;1.25;;